Time;durP1;ratioP1;P1;durP2;ratioP2;P2;SDS_P1;SDS_P2;PMS_P1;PMS_P2;Temp;Humidity;BMP_temperature;BMP_pressure;BME280_temperature;BME280_humidity;BME280_pressure;Samples;Min_cycle;Max_cycle;Signal;HPM_P1;HPM_P2
2022/09/26 00:01:50;;;;;;;;;;;14.70;99.90;;;;;;5089113;28;19913;-62
2022/09/26 00:04:18;;;;;;;;;;;14.80;99.90;;;;;;5098867;28;19915;-62
2022/09/26 00:06:43;;;;;;;;;;;14.70;99.90;;;;;;5095324;28;19948;-62
2022/09/26 00:09:09;;;;;;;;;;;14.80;99.90;;;;;;5089776;28;19905;-61
2022/09/26 00:11:35;;;;;;;;;;;14.80;99.90;;;;;;5091976;28;19913;-62
2022/09/26 00:14:03;;;;;;;;;;;15.00;99.90;;;;;;5098581;28;19904;-61
2022/09/26 00:16:29;;;;;;;;;;;15.00;99.90;;;;;;5098107;28;19914;-60
2022/09/26 00:18:56;;;;;;;;;;;15.00;99.90;;;;;;5090204;28;19936;-61
2022/09/26 00:21:22;;;;;;;;;;;15.00;99.90;;;;;;5093213;28;19909;-61
2022/09/26 00:23:48;;;;;;;;;;;14.90;99.90;;;;;;5093521;28;19916;-65
2022/09/26 00:26:15;;;;;;;;;;;15.00;99.90;;;;;;5097907;28;19923;-62
2022/09/26 00:28:41;;;;;;;;;;;15.00;99.90;;;;;;5091493;28;19904;-61
2022/09/26 00:31:08;;;;;;;;;;;15.00;99.90;;;;;;5091825;28;19936;-62
2022/09/26 00:33:34;;;;;;;;;;;14.90;99.90;;;;;;5093855;28;19912;-62
2022/09/26 00:36:00;;;;;;;;;;;14.80;99.90;;;;;;5096094;28;19904;-63
2022/09/26 00:38:25;;;;;;;;;;;14.80;99.90;;;;;;5094986;28;19904;-61
2022/09/26 00:40:51;;;;;;;;;;;14.80;99.90;;;;;;5090485;28;19913;-63
2022/09/26 00:43:43;;;;;;;;;;;14.70;99.90;;;;;;5087575;28;19924;-62
2022/09/26 00:46:26;;;;;;;;;;;14.60;99.90;;;;;;5059325;28;19921;-62
2022/09/26 00:49:03;;;;;;;;;;;14.50;99.90;;;;;;5092535;28;19924;-63
2022/09/26 00:51:28;;;;;;;;;;;14.40;99.90;;;;;;5091831;28;19904;-62
2022/09/26 00:53:54;;;;;;;;;;;14.30;99.90;;;;;;5093917;28;19962;-61
2022/09/26 00:56:29;;;;;;;;;;;14.20;99.90;;;;;;5094980;28;19991;-63
2022/09/26 00:59:02;;;;;;;;;;;14.10;99.90;;;;;;5094361;28;19928;-63
2022/09/26 01:01:28;;;;;;;;;;;13.90;99.90;;;;;;5093864;28;19932;-63
2022/09/26 01:03:54;;;;;;;;;;;13.70;99.90;;;;;;5090307;28;19904;-62
2022/09/26 01:06:20;;;;;;;;;;;13.50;99.90;;;;;;5091319;28;20047;-63
2022/09/26 01:08:55;;;;;;;;;;;13.50;99.90;;;;;;5087540;28;19908;-61
2022/09/26 01:11:21;;;;;;;;;;;13.50;99.90;;;;;;5088980;28;19920;-62
2022/09/26 01:13:48;;;;;;;;;;;13.50;99.90;;;;;;5089429;28;20060;-62
2022/09/26 01:16:13;;;;;;;;;;;13.40;99.90;;;;;;5089337;28;19917;-60
2022/09/26 01:18:40;;;;;;;;;;;13.40;99.90;;;;;;5088225;28;19924;-62
2022/09/26 01:21:24;;;;;;;;;;;13.40;99.90;;;;;;5087779;28;20760;-61
2022/09/26 01:23:53;;;;;;;;;;;13.40;99.90;;;;;;5087389;28;20154;-63
2022/09/26 01:26:18;;;;;;;;;;;13.20;99.90;;;;;;5087895;28;19936;-61
2022/09/26 01:29:03;;;;;;;;;;;13.20;99.90;;;;;;5088614;28;19904;-64
2022/09/26 01:31:35;;;;;;;;;;;13.20;99.90;;;;;;5086441;28;19901;-62
2022/09/26 01:34:06;;;;;;;;;;;13.20;99.90;;;;;;5087098;28;19905;-62
2022/09/26 01:36:39;;;;;;;;;;;13.20;99.90;;;;;;5088869;28;19927;-61
2022/09/26 01:39:24;;;;;;;;;;;13.20;99.90;;;;;;5088356;28;19911;-63
2022/09/26 01:41:59;;;;;;;;;;;13.20;99.90;;;;;;5090279;28;19909;-64
2022/09/26 01:44:36;;;;;;;;;;;13.20;99.90;;;;;;5087381;28;19905;-63
2022/09/26 01:47:08;;;;;;;;;;;13.20;99.90;;;;;;5088182;28;19931;-62
2022/09/26 01:49:57;;;;;;;;;;;13.10;99.90;;;;;;5085819;28;19905;-62
2022/09/26 01:52:28;;;;;;;;;;;13.10;99.90;;;;;;5079574;27;19908;-62
2022/09/26 01:54:58;;;;;;;;;;;13.20;99.90;;;;;;5068305;28;19928;-61
2022/09/26 01:57:28;;;;;;;;;;;13.20;99.90;;;;;;5090593;27;19909;-64
2022/09/26 01:59:57;;;;;;;;;;;13.10;99.90;;;;;;5088365;28;19928;-61
2022/09/26 02:02:25;;;;;;;;;;;13.10;99.90;;;;;;5087783;28;19904;-66
2022/09/26 02:04:58;;;;;;;;;;;13.10;99.90;;;;;;5086262;28;19916;-63
2022/09/26 02:07:34;;;;;;;;;;;13.10;99.90;;;;;;5087354;28;19905;-63
2022/09/26 02:10:07;;;;;;;;;;;13.10;99.90;;;;;;5089968;28;19908;-63
2022/09/26 02:12:38;;;;;;;;;;;13.00;99.90;;;;;;5093540;28;19977;-65
2022/09/26 02:15:06;;;;;;;;;;;13.00;99.90;;;;;;5086721;28;20183;-65
2022/09/26 02:17:35;;;;;;;;;;;13.00;99.90;;;;;;5072629;28;19928;-61
2022/09/26 02:20:09;;;;;;;;;;;13.10;99.90;;;;;;5089830;27;19935;-63
2022/09/26 02:22:34;;;;;;;;;;;13.00;99.90;;;;;;5090525;28;19943;-62
2022/09/26 02:25:00;;;;;;;;;;;13.10;99.90;;;;;;5086387;28;19917;-63
2022/09/26 02:27:26;;;;;;;;;;;13.10;99.90;;;;;;5087143;28;19936;-62
2022/09/26 02:29:52;;;;;;;;;;;13.10;99.90;;;;;;5087215;28;19913;-64
2022/09/26 02:32:19;;;;;;;;;;;13.10;99.90;;;;;;5088459;28;19911;-62
2022/09/26 02:34:46;;;;;;;;;;;13.20;99.90;;;;;;5083834;28;19921;-63
2022/09/26 02:37:13;;;;;;;;;;;13.20;99.90;;;;;;5087183;28;19905;-62
2022/09/26 02:39:43;;;;;;;;;;;13.20;99.90;;;;;;5085809;28;19913;-62
2022/09/26 02:42:27;;;;;;;;;;;13.40;99.90;;;;;;5084463;28;19983;-61
2022/09/26 02:45:08;;;;;;;;;;;13.30;99.90;;;;;;5087852;28;19939;-62
2022/09/26 02:47:44;;;;;;;;;;;13.20;99.90;;;;;;5089364;28;19911;-62
2022/09/26 02:50:18;;;;;;;;;;;13.20;99.90;;;;;;5091839;28;20264;-63
2022/09/26 02:53:03;;;;;;;;;;;13.30;99.90;;;;;;5089993;28;19911;-62
2022/09/26 02:55:58;;;;;;;;;;;13.30;99.90;;;;;;5090267;28;19901;-62
2022/09/26 02:58:35;;;;;;;;;;;13.40;99.90;;;;;;5066212;28;19924;-64
2022/09/26 03:01:20;;;;;;;;;;;13.40;99.90;;;;;;5090887;28;19995;-62
2022/09/26 03:03:58;;;;;;;;;;;13.50;99.90;;;;;;5089184;28;19912;-62
2022/09/26 03:06:31;;;;;;;;;;;13.60;99.90;;;;;;5091406;28;19924;-66
2022/09/26 03:08:57;;;;;;;;;;;13.60;99.90;;;;;;5089436;28;19944;-63
2022/09/26 03:11:24;;;;;;;;;;;13.60;99.90;;;;;;5089541;28;19905;-62
2022/09/26 03:13:52;;;;;;;;;;;13.60;99.90;;;;;;5089700;28;19939;-62
2022/09/26 03:16:19;;;;;;;;;;;13.60;99.90;;;;;;5091746;28;19905;-62
2022/09/26 03:18:50;;;;;;;;;;;13.60;99.90;;;;;;5088380;28;19908;-63
2022/09/26 03:21:16;;;;;;;;;;;13.60;99.90;;;;;;5094135;28;19916;-67
2022/09/26 03:23:41;;;;;;;;;;;13.50;99.90;;;;;;5092500;28;19905;-63
2022/09/26 03:26:09;;;;;;;;;;;13.50;99.90;;;;;;5092968;28;19901;-63
2022/09/26 03:28:35;;;;;;;;;;;13.70;99.90;;;;;;5091059;28;19904;-62
2022/09/26 03:31:00;;;;;;;;;;;13.70;99.90;;;;;;5088019;28;19923;-62
2022/09/26 03:33:26;;;;;;;;;;;13.70;99.90;;;;;;5090930;28;19915;-63
2022/09/26 03:35:52;;;;;;;;;;;13.70;99.90;;;;;;5083341;28;19912;-62
2022/09/26 03:38:17;;;;;;;;;;;13.70;99.90;;;;;;5087441;28;19966;-65
2022/09/26 03:40:43;;;;;;;;;;;13.70;99.90;;;;;;5089143;28;20089;-62
2022/09/26 03:43:09;;;;;;;;;;;13.60;99.90;;;;;;5099698;28;19907;-62
2022/09/26 03:45:35;;;;;;;;;;;13.70;99.90;;;;;;5084092;28;19927;-63
2022/09/26 03:48:01;;;;;;;;;;;13.70;99.90;;;;;;5095602;28;19900;-66
2022/09/26 03:50:27;;;;;;;;;;;13.60;99.90;;;;;;5095855;28;20173;-64
2022/09/26 03:52:52;;;;;;;;;;;13.70;99.90;;;;;;5094751;28;19931;-63
2022/09/26 03:55:18;;;;;;;;;;;13.70;99.90;;;;;;5097762;28;19938;-65
2022/09/26 03:57:44;;;;;;;;;;;13.70;99.90;;;;;;5093482;28;19926;-63
2022/09/26 04:00:09;;;;;;;;;;;13.70;99.90;;;;;;5093852;28;19976;-63
2022/09/26 04:02:35;;;;;;;;;;;13.80;99.90;;;;;;5089328;28;20376;-66
2022/09/26 04:05:00;;;;;;;;;;;13.80;99.90;;;;;;5090351;28;19935;-63
2022/09/26 04:07:26;;;;;;;;;;;13.90;99.90;;;;;;5091331;28;19922;-62
2022/09/26 04:09:52;;;;;;;;;;;14.00;99.90;;;;;;5094007;28;19900;-63
2022/09/26 04:12:18;;;;;;;;;;;13.90;99.90;;;;;;5071329;28;19907;-62
2022/09/26 04:14:44;;;;;;;;;;;14.00;99.90;;;;;;5094186;28;19911;-65
2022/09/26 04:17:09;;;;;;;;;;;14.10;99.90;;;;;;5092262;28;19905;-70
2022/09/26 04:19:35;;;;;;;;;;;14.10;99.90;;;;;;5092340;28;19916;-63
2022/09/26 04:22:00;;;;;;;;;;;14.10;99.90;;;;;;5093926;28;19920;-64
2022/09/26 04:24:26;;;;;;;;;;;14.10;99.90;;;;;;5093323;28;19901;-66
2022/09/26 04:26:52;;;;;;;;;;;14.10;99.90;;;;;;5100384;28;19983;-62
2022/09/26 04:29:18;;;;;;;;;;;14.10;99.90;;;;;;5089858;28;19923;-66
2022/09/26 04:31:44;;;;;;;;;;;14.20;99.90;;;;;;5095172;27;20256;-63
2022/09/26 04:34:10;;;;;;;;;;;14.10;99.90;;;;;;5094801;28;19982;-63
2022/09/26 04:36:36;;;;;;;;;;;14.20;99.90;;;;;;5098321;28;19904;-63
2022/09/26 04:39:02;;;;;;;;;;;14.30;99.90;;;;;;5093519;28;19930;-62
2022/09/26 04:41:28;;;;;;;;;;;14.20;99.90;;;;;;5091758;28;19932;-61
2022/09/26 04:43:54;;;;;;;;;;;14.30;99.90;;;;;;5088630;28;19904;-63
2022/09/26 04:46:22;;;;;;;;;;;14.20;99.90;;;;;;5106454;27;19905;-64
2022/09/26 04:48:48;;;;;;;;;;;14.30;99.90;;;;;;5091073;28;20048;-62
2022/09/26 04:51:14;;;;;;;;;;;14.20;99.90;;;;;;5087963;28;19924;-63
2022/09/26 04:53:40;;;;;;;;;;;14.30;99.90;;;;;;5092294;28;19911;-62
2022/09/26 04:56:06;;;;;;;;;;;14.30;99.90;;;;;;5086723;28;19980;-63
2022/09/26 04:58:32;;;;;;;;;;;14.30;99.90;;;;;;5088366;28;19900;-64
2022/09/26 05:01:02;;;;;;;;;;;14.30;99.90;;;;;;5090402;28;19971;-61
2022/09/26 05:03:28;;;;;;;;;;;14.40;99.90;;;;;;5089442;28;19964;-62
2022/09/26 05:05:53;;;;;;;;;;;14.40;99.90;;;;;;5089630;28;19917;-64
2022/09/26 05:08:19;;;;;;;;;;;14.40;99.90;;;;;;5086998;28;19967;-62
2022/09/26 05:10:51;;;;;;;;;;;14.30;99.90;;;;;;5087969;28;19932;-66
2022/09/26 05:13:16;;;;;;;;;;;14.30;99.90;;;;;;5090568;28;19927;-65
2022/09/26 05:15:42;;;;;;;;;;;14.30;99.90;;;;;;5087655;28;19912;-62
2022/09/26 05:18:10;;;;;;;;;;;14.40;99.90;;;;;;5087638;28;19935;-63
2022/09/26 05:20:36;;;;;;;;;;;14.50;99.90;;;;;;5086626;28;19916;-62
2022/09/26 05:23:03;;;;;;;;;;;14.50;99.90;;;;;;5088415;28;19907;-63
2022/09/26 05:28:15;;;;;;;;;;;14.50;99.90;;;;;;5088094;28;19927;-63
2022/09/26 05:30:42;;;;;;;;;;;14.50;99.90;;;;;;5093676;28;19920;-65
2022/09/26 05:33:07;;;;;;;;;;;14.50;99.90;;;;;;5086542;28;19917;-63
2022/09/26 05:35:34;;;;;;;;;;;14.60;99.90;;;;;;5088854;28;19919;-62
2022/09/26 05:38:02;;;;;;;;;;;14.60;99.90;;;;;;5090154;28;19969;-63
2022/09/26 05:43:13;;;;;;;;;;;14.60;99.90;;;;;;5088838;28;19915;-62
2022/09/26 05:45:38;;;;;;;;;;;14.50;99.90;;;;;;5090793;28;19916;-62
2022/09/26 05:48:04;;;;;;;;;;;14.40;99.90;;;;;;5088432;28;19911;-62
2022/09/26 05:50:30;;;;;;;;;;;14.40;99.90;;;;;;5092102;28;19900;-66
2022/09/26 05:53:00;;;;;;;;;;;14.40;99.90;;;;;;5091392;28;19905;-62
2022/09/26 05:55:26;;;;;;;;;;;14.30;99.90;;;;;;5091743;28;19983;-62
2022/09/26 05:57:52;;;;;;;;;;;14.30;99.90;;;;;;5092794;28;19908;-62
2022/09/26 06:00:19;;;;;;;;;;;14.30;99.90;;;;;;5091584;28;19915;-64
2022/09/26 06:02:44;;;;;;;;;;;14.30;99.90;;;;;;5088115;28;19961;-62
2022/09/26 06:05:10;;;;;;;;;;;14.30;99.90;;;;;;5088438;28;19913;-62
2022/09/26 06:07:36;;;;;;;;;;;14.30;99.90;;;;;;5085741;28;19925;-63
2022/09/26 06:10:04;;;;;;;;;;;14.30;99.90;;;;;;5091655;28;19930;-62
2022/09/26 06:12:30;;;;;;;;;;;14.30;99.90;;;;;;5094419;28;19976;-62
2022/09/26 06:14:55;;;;;;;;;;;14.20;99.90;;;;;;5095770;28;19904;-63
2022/09/26 06:17:21;;;;;;;;;;;14.20;99.90;;;;;;5090992;28;19909;-63
2022/09/26 06:19:46;;;;;;;;;;;14.10;99.90;;;;;;5090626;28;19938;-66
2022/09/26 06:22:12;;;;;;;;;;;14.00;99.90;;;;;;5089226;28;19916;-63
2022/09/26 06:24:38;;;;;;;;;;;14.00;99.90;;;;;;5089170;28;21578;-62
2022/09/26 06:27:03;;;;;;;;;;;14.00;99.90;;;;;;5088601;28;19921;-64
2022/09/26 06:29:29;;;;;;;;;;;14.00;99.90;;;;;;5091613;28;19912;-62
2022/09/26 06:31:54;;;;;;;;;;;14.00;99.90;;;;;;5086299;28;19964;-62
2022/09/26 06:34:21;;;;;;;;;;;14.00;99.90;;;;;;5089405;28;20371;-62
2022/09/26 06:36:46;;;;;;;;;;;14.10;99.90;;;;;;5088662;28;19988;-62
2022/09/26 06:39:13;;;;;;;;;;;14.00;99.90;;;;;;5084877;28;19967;-63
2022/09/26 06:41:39;;;;;;;;;;;14.00;99.90;;;;;;5086429;28;19911;-66
2022/09/26 06:44:04;;;;;;;;;;;14.00;99.90;;;;;;5086195;28;19916;-66
2022/09/26 06:46:30;;;;;;;;;;;14.10;99.90;;;;;;5087748;28;19916;-62
2022/09/26 06:48:57;;;;;;;;;;;14.00;99.90;;;;;;5085879;28;19917;-63
2022/09/26 06:51:23;;;;;;;;;;;14.10;99.90;;;;;;5104127;28;19904;-63
2022/09/26 06:53:48;;;;;;;;;;;14.00;99.90;;;;;;5084673;28;20541;-63
2022/09/26 06:56:14;;;;;;;;;;;14.00;99.90;;;;;;5085450;28;19905;-63
2022/09/26 06:58:40;;;;;;;;;;;14.10;99.90;;;;;;5082697;28;19959;-67
2022/09/26 07:01:06;;;;;;;;;;;14.10;99.90;;;;;;5086798;28;19948;-68
2022/09/26 07:03:32;;;;;;;;;;;14.00;99.90;;;;;;5088686;28;19991;-63
2022/09/26 07:05:57;;;;;;;;;;;14.00;99.90;;;;;;5083987;28;19944;-65
2022/09/26 07:08:24;;;;;;;;;;;14.00;99.90;;;;;;5087080;28;19931;-63
2022/09/26 07:10:50;;;;;;;;;;;14.00;99.90;;;;;;5086337;28;19923;-63
2022/09/26 07:13:16;;;;;;;;;;;13.90;99.90;;;;;;5090803;28;19905;-63
2022/09/26 07:15:45;;;;;;;;;;;13.90;99.90;;;;;;5089997;28;19927;-63
2022/09/26 07:18:10;;;;;;;;;;;13.80;99.90;;;;;;5089767;28;19955;-62
2022/09/26 07:20:44;;;;;;;;;;;13.80;99.90;;;;;;5084401;28;19939;-64
2022/09/26 07:23:09;;;;;;;;;;;13.90;99.90;;;;;;5080718;28;19924;-63
2022/09/26 07:25:38;;;;;;;;;;;13.90;99.90;;;;;;5087537;28;19909;-64
2022/09/26 07:28:04;;;;;;;;;;;13.90;99.90;;;;;;5088914;28;19904;-62
2022/09/26 07:30:30;;;;;;;;;;;14.00;99.90;;;;;;5095345;28;19920;-64
2022/09/26 07:33:02;;;;;;;;;;;14.00;99.90;;;;;;5084083;28;19933;-62
2022/09/26 07:35:28;;;;;;;;;;;14.00;99.90;;;;;;5081085;28;19909;-62
2022/09/26 07:37:54;;;;;;;;;;;14.00;99.90;;;;;;5096786;28;19911;-62
2022/09/26 07:40:19;;;;;;;;;;;14.10;99.90;;;;;;5090386;28;19952;-65
2022/09/26 07:42:45;;;;;;;;;;;14.10;99.90;;;;;;5097933;28;19924;-63
2022/09/26 07:45:11;;;;;;;;;;;14.20;99.90;;;;;;5098734;28;19901;-63
2022/09/26 07:50:21;;;;;;;;;;;14.30;99.90;;;;;;5093477;28;19916;-62
2022/09/26 07:52:48;;;;;;;;;;;14.40;99.90;;;;;;5094512;28;19912;-62
2022/09/26 07:55:15;;;;;;;;;;;14.50;99.90;;;;;;5092470;28;19904;-64
2022/09/26 07:57:42;;;;;;;;;;;14.70;99.90;;;;;;5097847;28;19972;-64
2022/09/26 08:00:11;;;;;;;;;;;14.80;99.90;;;;;;5091886;28;19913;-62
2022/09/26 08:02:40;;;;;;;;;;;14.70;99.90;;;;;;5084229;28;19921;-70
2022/09/26 08:05:05;;;;;;;;;;;14.60;99.90;;;;;;5088426;28;19905;-64
2022/09/26 08:07:32;;;;;;;;;;;14.60;99.90;;;;;;5105169;28;19911;-64
2022/09/26 08:09:57;;;;;;;;;;;14.60;99.90;;;;;;5095382;28;19972;-63
2022/09/26 08:12:24;;;;;;;;;;;14.60;99.90;;;;;;5098438;28;19920;-62
2022/09/26 08:14:51;;;;;;;;;;;14.70;99.90;;;;;;5095789;28;19930;-65
2022/09/26 08:17:17;;;;;;;;;;;14.80;99.90;;;;;;5094640;28;19905;-65
2022/09/26 08:19:43;;;;;;;;;;;14.90;99.90;;;;;;5100581;28;19948;-64
2022/09/26 08:22:10;;;;;;;;;;;15.00;99.90;;;;;;5102258;27;19942;-63
2022/09/26 08:24:36;;;;;;;;;;;15.00;99.90;;;;;;5084992;28;19960;-63
2022/09/26 08:27:01;;;;;;;;;;;14.90;99.90;;;;;;5092113;28;19928;-64
2022/09/26 08:29:29;;;;;;;;;;;14.80;99.90;;;;;;5096609;28;19905;-61
2022/09/26 08:31:57;;;;;;;;;;;14.90;99.90;;;;;;5087332;28;19900;-63
2022/09/26 08:34:22;;;;;;;;;;;14.90;99.90;;;;;;5084838;28;19904;-62
2022/09/26 08:36:54;;;;;;;;;;;14.80;99.90;;;;;;5089315;28;19904;-62
2022/09/26 08:39:20;;;;;;;;;;;14.80;99.90;;;;;;5090809;28;19913;-62
2022/09/26 08:42:07;;;;;;;;;;;15.00;99.90;;;;;;5086473;28;19919;-62
2022/09/26 08:44:36;;;;;;;;;;;15.00;99.90;;;;;;5091575;28;19904;-64
2022/09/26 08:47:03;;;;;;;;;;;15.10;99.90;;;;;;5090542;28;19996;-64
2022/09/26 08:49:29;;;;;;;;;;;14.90;99.90;;;;;;5089352;28;19904;-66
2022/09/26 08:51:57;;;;;;;;;;;14.90;99.90;;;;;;5089388;28;19923;-64
2022/09/26 08:54:32;;;;;;;;;;;14.90;99.90;;;;;;5089618;28;19901;-62
2022/09/26 08:57:00;;;;;;;;;;;15.00;99.90;;;;;;5089183;28;19962;-63
2022/09/26 08:59:29;;;;;;;;;;;15.10;99.90;;;;;;5074976;28;19905;-63
2022/09/26 09:01:57;;;;;;;;;;;15.00;99.90;;;;;;5089471;28;19909;-65
2022/09/26 09:04:25;;;;;;;;;;;15.00;99.90;;;;;;5088847;28;19950;-63
2022/09/26 09:06:54;;;;;;;;;;;15.00;99.90;;;;;;5085788;28;19943;-64
2022/09/26 09:09:20;;;;;;;;;;;15.00;99.90;;;;;;5088757;28;19917;-62
2022/09/26 09:12:02;;;;;;;;;;;15.10;99.90;;;;;;5086785;28;19904;-63
2022/09/26 09:14:34;;;;;;;;;;;15.10;99.90;;;;;;5088975;28;19925;-62
2022/09/26 09:17:02;;;;;;;;;;;15.00;99.90;;;;;;5090131;28;19948;-64
2022/09/26 09:19:28;;;;;;;;;;;15.20;99.90;;;;;;5087135;28;19974;-64
2022/09/26 09:22:21;;;;;;;;;;;15.00;99.90;;;;;;5089429;28;19936;-62
2022/09/26 09:24:58;;;;;;;;;;;15.00;99.90;;;;;;5088680;28;19905;-67
2022/09/26 09:27:33;;;;;;;;;;;15.10;99.90;;;;;;5087080;28;19916;-62
2022/09/26 09:30:03;;;;;;;;;;;15.30;99.90;;;;;;5088710;28;20003;-63
2022/09/26 09:32:40;;;;;;;;;;;15.40;99.90;;;;;;5088940;28;19912;-63
2022/09/26 09:35:12;;;;;;;;;;;15.50;99.90;;;;;;5086634;28;19915;-63
2022/09/26 09:37:41;;;;;;;;;;;15.30;99.90;;;;;;5087174;28;19915;-61
2022/09/26 09:40:11;;;;;;;;;;;15.00;99.90;;;;;;5084221;28;19923;-62
2022/09/26 09:42:40;;;;;;;;;;;14.90;99.90;;;;;;5084048;28;19944;-63
2022/09/26 09:45:14;;;;;;;;;;;14.90;99.90;;;;;;5085776;28;19916;-61
2022/09/26 09:47:39;;;;;;;;;;;14.90;99.90;;;;;;5083833;28;19980;-62
2022/09/26 09:50:29;;;;;;;;;;;15.00;99.90;;;;;;5086779;28;19904;-62
2022/09/26 09:53:13;;;;;;;;;;;15.10;99.90;;;;;;5085092;28;19936;-63
2022/09/26 09:56:02;;;;;;;;;;;15.00;99.90;;;;;;5102866;28;19920;-62
2022/09/26 09:58:37;;;;;;;;;;;15.20;99.90;;;;;;5088471;28;19947;-63
2022/09/26 10:01:11;;;;;;;;;;;15.30;99.90;;;;;;5086398;28;19979;-61
2022/09/26 10:03:46;;;;;;;;;;;15.30;99.90;;;;;;5085001;28;19931;-61
2022/09/26 10:06:12;;;;;;;;;;;15.60;99.90;;;;;;5084999;28;19972;-62
2022/09/26 10:08:41;;;;;;;;;;;15.50;99.90;;;;;;5088146;28;19963;-62
2022/09/26 10:11:25;;;;;;;;;;;15.60;92.50;;;;;;5086204;28;19904;-64
2022/09/26 10:13:55;;;;;;;;;;;15.50;90.20;;;;;;5069619;28;19969;-63
2022/09/26 10:16:21;;;;;;;;;;;15.40;90.00;;;;;;5083709;28;19904;-62
2022/09/26 10:18:59;;;;;;;;;;;15.20;88.60;;;;;;5085346;28;19928;-66
2022/09/26 10:21:27;;;;;;;;;;;15.30;87.10;;;;;;5085786;28;19927;-65
2022/09/26 10:23:52;;;;;;;;;;;15.40;85.20;;;;;;5085270;28;19909;-63
2022/09/26 10:26:25;;;;;;;;;;;15.50;81.80;;;;;;5084982;28;20803;-63
2022/09/26 10:28:54;;;;;;;;;;;15.50;82.10;;;;;;5084300;28;19912;-64
2022/09/26 10:31:30;;;;;;;;;;;15.70;82.30;;;;;;5101189;27;19904;-62
2022/09/26 10:33:59;;;;;;;;;;;15.90;80.10;;;;;;5084876;28;19916;-64
2022/09/26 10:36:31;;;;;;;;;;;15.90;78.90;;;;;;5084244;28;19928;-61
2022/09/26 10:41:48;;;;;;;;;;;16.20;79.40;;;;;;5085155;28;19963;-63
2022/09/26 10:44:24;;;;;;;;;;;16.30;77.70;;;;;;5086220;28;21131;-64
2022/09/26 10:46:51;;;;;;;;;;;16.10;76.70;;;;;;5082709;28;19909;-66
2022/09/26 10:49:22;;;;;;;;;;;16.20;77.10;;;;;;5086429;28;19936;-64
2022/09/26 10:52:10;;;;;;;;;;;16.10;75.40;;;;;;5084502;28;19919;-63
2022/09/26 10:54:39;;;;;;;;;;;15.90;75.80;;;;;;5084457;28;19927;-62
2022/09/26 10:57:08;;;;;;;;;;;16.00;76.00;;;;;;5085623;28;19908;-63
2022/09/26 10:59:38;;;;;;;;;;;16.00;77.40;;;;;;5084990;28;19913;-64
2022/09/26 11:02:04;;;;;;;;;;;15.90;76.50;;;;;;5084813;28;19920;-70
2022/09/26 11:07:24;;;;;;;;;;;16.00;77.20;;;;;;5083581;28;19919;-63
2022/09/26 11:09:51;;;;;;;;;;;16.00;78.10;;;;;;5085911;28;19913;-64
2022/09/26 11:12:22;;;;;;;;;;;16.00;79.20;;;;;;5085348;28;19908;-62
2022/09/26 11:14:52;;;;;;;;;;;16.00;78.60;;;;;;5085302;27;19912;-62
2022/09/26 11:17:18;;;;;;;;;;;15.90;77.40;;;;;;5087898;28;19912;-63
2022/09/26 11:19:51;;;;;;;;;;;16.00;79.30;;;;;;5086936;28;19908;-62
2022/09/26 11:22:32;;;;;;;;;;;16.20;78.40;;;;;;5082448;28;19931;-62
2022/09/26 11:25:03;;;;;;;;;;;16.20;78.20;;;;;;5088024;28;19919;-61
2022/09/26 11:27:44;;;;;;;;;;;15.50;90.60;;;;;;5085459;28;19920;-63
2022/09/26 11:30:11;;;;;;;;;;;15.00;92.60;;;;;;5087906;28;19904;-63
2022/09/26 11:32:44;;;;;;;;;;;14.80;92.60;;;;;;5085917;28;19932;-63
2022/09/26 11:35:19;;;;;;;;;;;14.80;93.40;;;;;;5086364;28;19904;-63
2022/09/26 11:37:49;;;;;;;;;;;15.00;91.70;;;;;;5087637;28;19936;-63
2022/09/26 11:40:34;;;;;;;;;;;15.30;91.30;;;;;;5084706;28;19912;-63
2022/09/26 11:43:08;;;;;;;;;;;15.70;90.40;;;;;;5084224;28;19995;-64
2022/09/26 11:45:33;;;;;;;;;;;15.80;86.90;;;;;;5087904;28;19984;-66
2022/09/26 11:48:17;;;;;;;;;;;15.70;85.60;;;;;;5087314;28;19964;-64
2022/09/26 11:50:49;;;;;;;;;;;15.40;89.00;;;;;;5085951;28;19921;-62
2022/09/26 11:53:18;;;;;;;;;;;15.20;91.70;;;;;;5084344;28;19920;-65
2022/09/26 11:56:00;;;;;;;;;;;15.10;91.50;;;;;;5098101;28;19936;-62
2022/09/26 11:58:38;;;;;;;;;;;15.10;91.80;;;;;;5087826;28;19920;-63
2022/09/26 12:01:22;;;;;;;;;;;15.20;92.30;;;;;;5085672;28;19913;-65
2022/09/26 12:03:54;;;;;;;;;;;15.10;91.50;;;;;;5088321;28;19905;-63
2022/09/26 12:06:32;;;;;;;;;;;15.30;90.60;;;;;;5089500;28;19913;-64
2022/09/26 12:09:01;;;;;;;;;;;15.20;87.30;;;;;;5089220;28;19904;-65
2022/09/26 12:11:41;;;;;;;;;;;15.20;85.70;;;;;;5087375;28;19972;-62
2022/09/26 12:14:22;;;;;;;;;;;15.10;85.50;;;;;;5088830;28;19905;-64
2022/09/26 12:17:00;;;;;;;;;;;15.30;84.40;;;;;;5097362;28;19926;-62
2022/09/26 12:19:33;;;;;;;;;;;15.60;81.10;;;;;;5088805;28;19942;-62
2022/09/26 12:25:07;;;;;;;;;;;15.80;76.70;;;;;;5091128;28;20050;-63
2022/09/26 12:27:38;;;;;;;;;;;15.80;77.40;;;;;;5091942;28;19904;-65
2022/09/26 12:30:11;;;;;;;;;;;15.90;75.40;;;;;;5090289;28;19977;-62
2022/09/26 12:32:39;;;;;;;;;;;15.80;76.40;;;;;;5087851;28;19960;-67
2022/09/26 12:35:14;;;;;;;;;;;15.80;75.80;;;;;;5090943;28;19914;-64
2022/09/26 12:37:48;;;;;;;;;;;15.80;73.30;;;;;;5087588;28;19904;-64
2022/09/26 12:40:36;;;;;;;;;;;15.90;72.00;;;;;;5106015;28;19942;-65
2022/09/26 12:43:12;;;;;;;;;;;16.20;71.40;;;;;;5074497;28;19932;-63
2022/09/26 12:45:57;;;;;;;;;;;16.30;70.50;;;;;;5088251;28;19958;-63
2022/09/26 12:48:22;;;;;;;;;;;16.50;68.80;;;;;;5088604;28;19923;-64
2022/09/26 12:50:51;;;;;;;;;;;16.40;65.50;;;;;;5087168;28;19912;-63
2022/09/26 12:53:27;;;;;;;;;;;16.30;63.80;;;;;;5089603;28;19920;-63
2022/09/26 12:56:14;;;;;;;;;;;16.20;64.30;;;;;;5104253;28;19926;-63
2022/09/26 12:58:48;;;;;;;;;;;16.20;64.70;;;;;;5090321;28;19916;-63
2022/09/26 13:01:14;;;;;;;;;;;16.20;63.10;;;;;;5089166;28;19932;-63
2022/09/26 13:03:48;;;;;;;;;;;16.30;63.90;;;;;;5083114;28;19909;-62
2022/09/26 13:06:21;;;;;;;;;;;16.40;63.00;;;;;;5087618;28;19976;-62
2022/09/26 13:08:47;;;;;;;;;;;16.40;60.50;;;;;;5087220;27;19913;-63
2022/09/26 13:11:36;;;;;;;;;;;16.20;60.70;;;;;;5087463;28;19917;-65
2022/09/26 13:14:14;;;;;;;;;;;16.20;61.70;;;;;;5071906;28;19928;-65
2022/09/26 13:16:39;;;;;;;;;;;16.20;60.30;;;;;;5090780;28;19971;-60
2022/09/26 13:19:24;;;;;;;;;;;16.10;60.80;;;;;;5092629;27;20437;-65
2022/09/26 13:21:58;;;;;;;;;;;16.20;61.20;;;;;;5087488;28;19932;-63
2022/09/26 13:24:31;;;;;;;;;;;16.20;60.40;;;;;;5092859;28;19909;-66
2022/09/26 13:27:10;;;;;;;;;;;16.10;60.50;;;;;;5091586;28;19922;-65
2022/09/26 13:29:37;;;;;;;;;;;16.20;60.70;;;;;;5079760;28;19966;-65
2022/09/26 13:32:02;;;;;;;;;;;16.10;60.50;;;;;;5082037;28;19920;-63
2022/09/26 13:34:46;;;;;;;;;;;16.10;60.40;;;;;;5086305;28;19901;-63
2022/09/26 13:37:27;;;;;;;;;;;15.90;60.20;;;;;;5086341;28;19904;-66
2022/09/26 13:39:56;;;;;;;;;;;16.10;60.00;;;;;;5086213;28;20142;-62
2022/09/26 13:42:22;;;;;;;;;;;16.10;59.80;;;;;;5090211;28;20086;-66
2022/09/26 13:44:59;;;;;;;;;;;16.30;58.60;;;;;;5088735;28;19912;-67
2022/09/26 13:47:40;;;;;;;;;;;16.50;59.20;;;;;;5094421;28;19949;-64
2022/09/26 13:50:24;;;;;;;;;;;16.50;59.60;;;;;;5087624;28;19916;-64
2022/09/26 13:52:55;;;;;;;;;;;16.40;58.90;;;;;;5090571;28;19969;-66
2022/09/26 13:55:21;;;;;;;;;;;16.40;59.50;;;;;;5084592;28;19930;-62
2022/09/26 13:57:48;;;;;;;;;;;16.30;60.50;;;;;;5087686;28;19924;-61
2022/09/26 14:00:28;;;;;;;;;;;16.50;60.00;;;;;;5076350;28;19988;-64
2022/09/26 14:03:08;;;;;;;;;;;16.70;59.30;;;;;;5093359;28;19931;-63
2022/09/26 14:05:45;;;;;;;;;;;16.50;59.40;;;;;;5084064;28;20000;-63
2022/09/26 14:11:10;;;;;;;;;;;16.70;58.40;;;;;;5088327;28;19916;-63
2022/09/26 14:13:36;;;;;;;;;;;16.60;59.20;;;;;;5090841;28;19935;-64
2022/09/26 14:16:03;;;;;;;;;;;16.60;58.70;;;;;;5081992;28;19912;-62
2022/09/26 14:18:33;;;;;;;;;;;16.70;58.50;;;;;;5089152;28;19946;-63
2022/09/26 14:21:18;;;;;;;;;;;16.90;58.10;;;;;;5086346;28;19920;-62
2022/09/26 14:23:44;;;;;;;;;;;16.90;57.20;;;;;;5088323;28;20011;-60
2022/09/26 14:26:11;;;;;;;;;;;16.70;57.60;;;;;;5091667;28;19904;-61
2022/09/26 14:28:38;;;;;;;;;;;16.50;56.60;;;;;;5085130;28;19916;-63
2022/09/26 14:31:12;;;;;;;;;;;16.60;56.90;;;;;;5088649;28;19964;-62
2022/09/26 14:33:38;;;;;;;;;;;16.60;57.00;;;;;;5089160;27;19983;-63
2022/09/26 14:36:36;;;;;;;;;;;16.70;56.60;;;;;;5088439;28;19921;-66
2022/09/26 14:39:03;;;;;;;;;;;16.70;56.10;;;;;;5054612;28;19915;-62
2022/09/26 14:41:30;;;;;;;;;;;16.80;56.10;;;;;;5087605;28;19913;-65
2022/09/26 14:44:15;;;;;;;;;;;16.70;56.30;;;;;;5088004;28;19904;-63
2022/09/26 14:46:41;;;;;;;;;;;16.60;53.80;;;;;;5094318;28;19904;-66
2022/09/26 14:49:17;;;;;;;;;;;16.60;54.80;;;;;;5095514;28;19919;-64
2022/09/26 14:51:46;;;;;;;;;;;16.50;54.80;;;;;;5098522;28;19904;-62
2022/09/26 14:54:15;;;;;;;;;;;16.60;55.60;;;;;;5091125;28;19987;-67